createdAt,value
2024-04-05T00:00:16.930Z,12.56
2024-04-05T00:01:19.198Z,12.56
2024-04-05T00:02:16.872Z,12.56
2024-04-05T00:03:16.181Z,12.56
2024-04-05T00:04:16.379Z,12.63
2024-04-05T00:05:17.170Z,12.63
2024-04-05T00:06:16.460Z,12.63
2024-04-05T00:07:16.748Z,12.56
2024-04-05T00:08:16.101Z,12.56
2024-04-05T00:09:16.442Z,12.56
2024-04-05T00:10:17.298Z,12.56
2024-04-05T00:11:16.451Z,12.56
2024-04-05T00:12:16.864Z,12.56
2024-04-05T00:13:16.097Z,12.56
2024-04-05T00:14:16.486Z,12.56
2024-04-05T00:15:17.111Z,12.56
2024-04-05T00:16:16.269Z,12.56
2024-04-05T00:17:16.554Z,12.56
2024-04-05T00:18:16.750Z,12.56
2024-04-05T00:19:16.142Z,12.56
2024-04-05T00:20:16.966Z,12.56
2024-04-05T00:21:16.174Z,12.56
2024-04-05T00:22:16.510Z,12.56
2024-04-05T00:23:17.337Z,12.56
2024-04-05T00:24:15.944Z,12.56
2024-04-05T00:25:16.621Z,12.56
2024-04-05T00:26:16.048Z,12.56
2024-04-05T00:27:16.277Z,12.56
2024-04-05T00:28:16.609Z,12.56
2024-04-05T00:29:16.795Z,12.56
2024-04-05T00:30:16.568Z,12.56
2024-04-05T00:31:17.089Z,12.56
2024-04-05T00:32:16.216Z,12.56
2024-04-05T00:33:16.459Z,12.56
2024-04-05T00:34:16.732Z,12.56
2024-04-05T00:35:16.337Z,12.56
2024-04-05T00:36:16.676Z,12.56
2024-04-05T00:37:15.902Z,12.56
2024-04-05T00:38:16.139Z,12.56
2024-04-05T00:39:16.599Z,12.56
2024-04-05T00:40:17.387Z,12.56
2024-04-05T00:41:16.805Z,12.56
2024-04-05T00:42:15.992Z,12.56
2024-04-05T00:43:17.163Z,12.56
2024-04-05T00:44:16.630Z,12.56
2024-04-05T00:45:17.399Z,12.56
2024-04-05T00:46:16.693Z,12.56
2024-04-05T00:47:15.815Z,12.56
2024-04-05T00:48:16.014Z,12.56
2024-04-05T00:49:16.327Z,12.56
2024-04-05T00:50:17.076Z,12.56
2024-04-05T00:51:16.370Z,12.56
2024-04-05T00:52:16.647Z,12.56
2024-04-05T00:53:16.020Z,12.56
2024-04-05T00:54:16.218Z,12.56
2024-04-05T00:55:17.204Z,12.56
2024-04-05T00:56:16.445Z,12.5
2024-04-05T00:57:16.629Z,12.5
2024-04-05T00:58:16.901Z,12.5
2024-04-05T00:59:16.192Z,12.56
2024-04-05T01:00:16.853Z,12.5
2024-04-05T01:01:16.221Z,12.5
2024-04-05T01:02:16.925Z,12.5
2024-04-05T01:03:16.165Z,12.5
2024-04-05T01:04:16.407Z,12.5
2024-04-05T01:05:17.074Z,12.5
2024-04-05T01:06:16.256Z,12.5
2024-04-05T01:07:16.531Z,12.5
2024-04-05T01:08:16.813Z,12.5
2024-04-05T01:09:16.216Z,12.5
2024-04-05T01:10:16.794Z,12.5
2024-04-05T01:11:16.012Z,12.5
2024-04-05T01:12:16.372Z,12.5
2024-04-05T01:13:16.590Z,12.5
2024-04-05T01:14:15.946Z,12.5
2024-04-05T01:15:16.737Z,12.5
2024-04-05T01:16:15.930Z,12.5
2024-04-05T01:17:16.256Z,12.5
2024-04-05T01:18:16.590Z,12.5
2024-04-05T01:19:16.872Z,12.5
2024-04-05T01:20:16.559Z,12.5
2024-04-05T01:21:16.652Z,12.5
2024-04-05T01:22:15.748Z,12.5
2024-04-05T01:23:16.010Z,12.5
2024-04-05T01:24:16.494Z,12.5
2024-04-05T01:25:17.097Z,12.5
2024-04-05T01:26:16.346Z,12.5
2024-04-05T01:27:16.563Z,12.44
2024-04-05T01:28:16.914Z,12.5
2024-04-05T01:29:16.087Z,12.44
2024-04-05T01:30:16.810Z,12.44
2024-04-05T01:31:16.191Z,12.5
2024-04-05T01:32:16.614Z,12.44
2024-04-05T01:33:17.595Z,12.44
2024-04-05T01:34:15.961Z,12.44
2024-04-05T01:35:16.409Z,12.44
2024-04-05T01:36:16.665Z,12.44
2024-04-05T01:37:15.914Z,12.44
2024-04-05T01:38:16.152Z,12.44
2024-04-05T01:39:16.663Z,12.44
2024-04-05T01:40:16.350Z,12.44
2024-04-05T01:41:16.689Z,12.44
2024-04-05T01:42:15.902Z,12.44
2024-04-05T01:43:16.157Z,12.44
2024-04-05T01:44:16.710Z,12.44
2024-04-05T01:45:16.283Z,12.44
2024-04-05T01:46:16.564Z,12.44
2024-04-05T01:47:16.923Z,12.44
2024-04-05T01:48:16.159Z,12.44
2024-04-05T01:49:16.453Z,12.44
2024-04-05T01:50:17.088Z,12.37
2024-04-05T01:51:16.292Z,12.37
2024-04-05T01:52:16.512Z,12.37
2024-04-05T01:53:16.708Z,12.37
2024-04-05T01:54:15.834Z,12.37
2024-04-05T01:55:16.567Z,12.37
2024-04-05T01:56:16.832Z,12.37
2024-04-05T01:57:16.121Z,12.37
2024-04-05T01:58:16.441Z,12.37
2024-04-05T01:59:16.419Z,12.37
2024-04-05T02:00:17.226Z,12.37
2024-04-05T02:01:16.490Z,12.37
2024-04-05T02:02:16.959Z,12.37
2024-04-05T02:03:16.252Z,12.37
2024-04-05T02:04:16.530Z,12.37
2024-04-05T02:05:17.259Z,12.37
2024-04-05T02:06:16.591Z,12.37
2024-04-05T02:07:16.817Z,12.37
2024-04-05T02:08:19.064Z,12.37
2024-04-05T02:09:16.412Z,12.37
2024-04-05T02:10:17.227Z,12.31
2024-04-05T02:11:16.975Z,12.31
2024-04-05T02:12:16.297Z,12.31
2024-04-05T02:13:16.331Z,12.31
2024-04-05T02:14:16.776Z,12.31
2024-04-05T02:15:16.510Z,12.31
2024-04-05T02:16:16.760Z,12.31
2024-04-05T02:17:16.281Z,12.31
2024-04-05T02:18:17.028Z,12.31
2024-04-05T02:19:16.453Z,12.31
2024-04-05T02:20:16.908Z,12.31
2024-04-05T02:21:16.234Z,12.31
2024-04-05T02:22:16.497Z,12.31
2024-04-05T02:23:16.863Z,12.31
2024-04-05T02:24:16.063Z,12.31
2024-04-05T02:25:16.695Z,12.31
2024-04-05T02:26:15.936Z,12.31
2024-04-05T02:27:16.211Z,12.25
2024-04-05T02:28:16.531Z,12.25
2024-04-05T02:29:16.707Z,12.25
2024-04-05T02:30:16.429Z,12.25
2024-04-05T02:31:16.631Z,12.25
2024-04-05T02:32:15.777Z,12.25
2024-04-05T02:33:15.848Z,12.25
2024-04-05T02:34:16.274Z,12.25
2024-04-05T02:35:17.097Z,12.25
2024-04-05T02:36:16.425Z,12.25
2024-04-05T02:37:16.707Z,12.25
2024-04-05T02:38:15.732Z,12.25
2024-04-05T02:39:16.240Z,12.25
2024-04-05T02:40:16.941Z,12.25
2024-04-05T02:41:16.213Z,12.19
2024-04-05T02:42:16.339Z,12.19
2024-04-05T02:43:16.838Z,12.19
2024-04-05T02:44:16.162Z,12.19
2024-04-05T02:45:16.862Z,12.19
2024-04-05T02:46:16.124Z,12.19
2024-04-05T02:47:16.528Z,12.19
2024-04-05T02:48:16.822Z,12.19
2024-04-05T02:49:16.021Z,12.19
2024-04-05T02:50:16.773Z,12.19
2024-04-05T02:51:15.966Z,12.19
2024-04-05T02:52:16.346Z,12.19
2024-04-05T02:53:16.826Z,12.19
2024-04-05T02:54:19.425Z,12.19
2024-04-05T02:55:17.033Z,12.13
2024-04-05T02:56:16.178Z,12.13
2024-04-05T02:57:16.626Z,12.13
2024-04-05T02:58:15.970Z,12.13
2024-04-05T02:59:16.360Z,12.13
2024-04-05T03:00:17.070Z,12.13
2024-04-05T03:01:16.303Z,12.13
2024-04-05T03:02:16.996Z,12.13
2024-04-05T03:03:16.295Z,12.13
2024-04-05T03:04:16.486Z,12.13
2024-04-05T03:05:21.035Z,12.13
2024-04-05T03:06:16.365Z,12.13
2024-04-05T03:07:16.732Z,12.13
2024-04-05T03:08:16.099Z,12.13
2024-04-05T03:09:16.368Z,12.13
2024-04-05T03:10:17.254Z,12.06
2024-04-05T03:11:16.409Z,12.06
2024-04-05T03:12:16.768Z,12.06
2024-04-05T03:13:16.176Z,12.06
2024-04-05T03:14:16.508Z,12.06
2024-04-05T03:15:17.190Z,12.06
2024-04-05T03:16:16.423Z,12.06
2024-04-05T03:17:16.730Z,12.06
2024-04-05T03:18:16.093Z,12.06
2024-04-05T03:19:16.411Z,12.06
2024-04-05T03:20:17.142Z,12.06
2024-04-05T03:21:16.381Z,12.06
2024-04-05T03:22:16.658Z,12.06
2024-04-05T03:23:16.811Z,12.06
2024-04-05T03:24:16.142Z,12.06
2024-04-05T03:25:16.793Z,12
2024-04-05T03:26:15.996Z,12
2024-04-05T03:27:16.407Z,12
2024-04-05T03:28:16.711Z,12
2024-04-05T03:29:15.879Z,12
2024-04-05T03:30:16.486Z,12
2024-04-05T03:31:16.871Z,12
2024-04-05T03:32:16.157Z,12
2024-04-05T03:33:16.298Z,12
2024-04-05T03:34:16.669Z,12
2024-04-05T03:35:16.452Z,12
2024-04-05T03:36:16.738Z,12
2024-04-05T03:37:15.924Z,12
2024-04-05T03:38:16.209Z,12
2024-04-05T03:39:16.598Z,12
2024-04-05T03:40:16.167Z,11.94
2024-04-05T03:41:16.547Z,11.94
2024-04-05T03:42:16.668Z,11.94
2024-04-05T03:43:16.914Z,11.94
2024-04-05T03:44:16.165Z,11.94
2024-04-05T03:45:16.835Z,11.94
2024-04-05T03:46:16.001Z,11.94
2024-04-05T03:47:16.324Z,11.94
2024-04-05T03:48:16.635Z,11.94
2024-04-05T03:49:15.953Z,11.94
2024-04-05T03:50:16.766Z,11.94
2024-04-05T03:51:15.925Z,11.94
2024-04-05T03:52:16.128Z,11.94
2024-04-05T03:53:16.395Z,11.94
2024-04-05T03:54:16.646Z,11.94
2024-04-05T03:55:16.430Z,11.94
2024-04-05T03:56:16.767Z,11.88
2024-04-05T03:57:15.944Z,11.88
2024-04-05T03:58:16.316Z,11.88
2024-04-05T03:59:16.701Z,11.88
2024-04-05T04:00:16.376Z,11.88
2024-04-05T04:01:16.842Z,11.88
2024-04-05T04:02:16.498Z,11.88
2024-04-05T04:03:16.733Z,11.88
2024-04-05T04:04:16.139Z,11.88
2024-04-05T04:05:16.941Z,11.88
2024-04-05T04:06:16.165Z,11.88
2024-04-05T04:07:16.492Z,11.88
2024-04-05T04:08:16.669Z,11.88
2024-04-05T04:09:16.002Z,11.88
2024-04-05T04:10:16.852Z,11.81
2024-04-05T04:11:16.236Z,11.81
2024-04-05T04:12:16.482Z,11.81
2024-04-05T04:13:16.618Z,11.81
2024-04-05T04:14:16.113Z,11.81
2024-04-05T04:15:18.842Z,11.81
2024-04-05T04:16:18.840Z,11.81
2024-04-05T04:17:16.611Z,11.81
2024-04-05T04:18:16.875Z,11.81
2024-04-05T04:19:16.105Z,11.81
2024-04-05T04:20:16.983Z,11.81
2024-04-05T04:21:16.333Z,11.81
2024-04-05T04:22:16.497Z,11.81
2024-04-05T04:23:16.696Z,11.81
2024-04-05T04:24:15.983Z,11.81
2024-04-05T04:25:16.816Z,11.81
2024-04-05T04:26:16.093Z,11.75
2024-04-05T04:27:16.575Z,11.75
2024-04-05T04:28:15.845Z,11.75
2024-04-05T04:29:16.260Z,11.75
2024-04-05T04:30:16.878Z,11.75
2024-04-05T04:31:16.217Z,11.75
2024-04-05T04:32:16.521Z,11.75
2024-04-05T04:33:16.743Z,11.75
2024-04-05T04:34:16.032Z,11.75
2024-04-05T04:35:16.609Z,11.75
2024-04-05T04:36:15.973Z,11.75
2024-04-05T04:37:16.230Z,11.75
2024-04-05T04:38:16.491Z,11.75
2024-04-05T04:39:16.893Z,11.75
2024-04-05T04:40:16.893Z,11.69
2024-04-05T04:41:16.218Z,11.75
2024-04-05T04:42:16.288Z,11.75
2024-04-05T04:43:16.510Z,11.75
2024-04-05T04:44:16.882Z,11.75
2024-04-05T04:45:16.615Z,11.69
2024-04-05T04:46:16.955Z,11.69
2024-04-05T04:47:16.112Z,11.69
2024-04-05T04:48:16.385Z,11.69
2024-04-05T04:49:16.663Z,11.69
2024-04-05T04:50:16.394Z,11.69
2024-04-05T04:51:16.600Z,11.69
2024-04-05T04:52:16.802Z,11.69
2024-04-05T04:53:16.092Z,11.69
2024-04-05T04:54:16.335Z,11.69
2024-04-05T04:55:16.831Z,11.69
2024-04-05T04:56:16.028Z,11.69
2024-04-05T04:57:16.342Z,11.69
2024-04-05T04:58:16.682Z,11.69
2024-04-05T04:59:19.056Z,11.69
2024-04-05T05:00:16.748Z,11.69
2024-04-05T05:01:16.005Z,11.69
2024-04-05T05:02:16.824Z,11.69
2024-04-05T05:03:16.097Z,11.69
2024-04-05T05:04:16.322Z,11.69
2024-04-05T05:05:17.114Z,11.69
2024-04-05T05:06:16.482Z,11.69
2024-04-05T05:07:16.790Z,11.69
2024-04-05T05:08:16.108Z,11.63
2024-04-05T05:09:16.543Z,11.69
2024-04-05T05:10:17.148Z,11.63
2024-04-05T05:11:16.550Z,11.63
2024-04-05T05:12:21.695Z,11.63
2024-04-05T05:13:16.003Z,11.63
2024-04-05T05:14:16.155Z,11.63
2024-04-05T05:15:17.030Z,11.63
2024-04-05T05:16:16.485Z,11.63
2024-04-05T05:17:16.599Z,11.63
2024-04-05T05:18:16.046Z,11.63
2024-04-05T05:19:16.319Z,11.63
2024-04-05T05:20:16.816Z,11.63
2024-04-05T05:21:16.242Z,11.63
2024-04-05T05:22:16.112Z,11.63
2024-04-05T05:23:16.581Z,11.63
2024-04-05T05:24:16.838Z,11.63
2024-04-05T05:25:16.570Z,11.63
2024-04-05T05:26:16.755Z,11.63
2024-04-05T05:27:15.825Z,11.63
2024-04-05T05:28:16.111Z,11.63
2024-04-05T05:29:16.440Z,11.63
2024-04-05T05:30:17.244Z,11.63
2024-04-05T05:31:16.557Z,11.63
2024-04-05T05:32:16.713Z,11.63
2024-04-05T05:33:16.046Z,11.63
2024-04-05T05:34:16.270Z,11.63
2024-04-05T05:35:17.021Z,11.63
2024-04-05T05:36:16.369Z,11.56
2024-04-05T05:37:15.470Z,11.56
2024-04-05T05:38:16.884Z,11.63
2024-04-05T05:39:16.107Z,11.56
2024-04-05T05:40:16.807Z,11.63
2024-04-05T05:41:16.146Z,11.56
2024-04-05T05:42:16.447Z,11.56
2024-04-05T05:43:21.632Z,11.56
2024-04-05T05:44:16.695Z,11.56
2024-04-05T05:45:16.374Z,11.56
2024-04-05T05:46:16.711Z,11.56
2024-04-05T05:47:19.512Z,11.56
2024-04-05T05:48:16.142Z,11.56
2024-04-05T05:49:16.349Z,11.56
2024-04-05T05:50:17.004Z,11.56
2024-04-05T05:51:16.387Z,11.56
2024-04-05T05:52:16.575Z,11.56
2024-04-05T05:53:16.888Z,11.56
2024-04-05T05:54:16.197Z,11.56
2024-04-05T05:55:16.996Z,11.56
2024-04-05T05:56:16.259Z,11.56
2024-04-05T05:57:19.509Z,11.56
2024-04-05T05:58:16.841Z,11.56
2024-04-05T05:59:16.097Z,11.56
2024-04-05T06:00:16.866Z,11.56
2024-04-05T06:01:16.069Z,11.56
2024-04-05T06:02:16.675Z,11.56
2024-04-05T06:03:16.203Z,11.56
2024-04-05T06:04:16.550Z,11.56
2024-04-05T06:05:17.116Z,11.56
2024-04-05T06:06:16.224Z,11.56
2024-04-05T06:07:16.431Z,11.56
2024-04-05T06:08:48.704Z,11.56
2024-04-05T06:09:53.141Z,11.56
2024-04-05T06:10:16.986Z,11.56
2024-04-05T06:11:16.190Z,11.56
2024-04-05T06:12:16.197Z,11.56
2024-04-05T06:13:17.031Z,11.56
2024-04-05T06:14:16.155Z,11.56
2024-04-05T06:15:17.094Z,11.56
2024-04-05T06:16:16.148Z,11.56
2024-04-05T06:17:16.308Z,11.56
2024-04-05T06:18:17.095Z,11.56
2024-04-05T06:19:16.996Z,11.56
2024-04-05T06:20:16.660Z,11.56
2024-04-05T06:21:16.828Z,11.56
2024-04-05T06:22:16.070Z,11.56
2024-04-05T06:23:16.420Z,11.56
2024-04-05T06:24:16.764Z,11.56
2024-04-05T06:25:16.543Z,11.56
2024-04-05T06:26:16.793Z,11.56
2024-04-05T06:27:15.988Z,11.56
2024-04-05T06:28:16.130Z,11.56
2024-04-05T06:29:16.355Z,11.56
2024-04-05T06:30:17.135Z,11.56
2024-04-05T06:31:16.540Z,11.56
2024-04-05T06:32:16.911Z,11.56
2024-04-05T06:33:16.052Z,11.56
2024-04-05T06:34:16.229Z,11.56
2024-04-05T06:35:16.990Z,11.56
2024-04-05T06:36:16.242Z,11.56
2024-04-05T06:37:16.403Z,11.56
2024-04-05T06:38:16.702Z,11.56
2024-04-05T06:39:16.066Z,11.56
2024-04-05T06:40:16.695Z,11.56
2024-04-05T06:41:16.037Z,11.56
2024-04-05T06:42:16.285Z,11.56
2024-04-05T06:43:18.363Z,11.56
2024-04-05T06:44:16.754Z,11.56
2024-04-05T06:45:16.416Z,11.56
2024-04-05T06:46:16.753Z,11.56
2024-04-05T06:47:15.904Z,11.56
2024-04-05T06:48:17.113Z,11.56
2024-04-05T06:49:16.448Z,11.56
2024-04-05T06:50:17.362Z,11.56
2024-04-05T06:51:16.680Z,11.56
2024-04-05T06:52:16.893Z,11.56
2024-04-05T06:53:16.247Z,11.56
2024-04-05T06:54:16.436Z,11.56
2024-04-05T06:55:17.428Z,11.56
2024-04-05T06:56:16.721Z,11.56
2024-04-05T06:57:16.939Z,11.56
2024-04-05T06:58:16.322Z,11.56
2024-04-05T06:59:16.648Z,11.56
2024-04-05T07:00:21.055Z,11.56
2024-04-05T07:01:17.278Z,11.56
2024-04-05T07:02:53.868Z,11.56
2024-04-05T07:03:16.436Z,11.56
2024-04-05T07:04:16.725Z,11.56
2024-04-05T07:05:16.470Z,11.56
2024-04-05T07:06:16.933Z,11.56
2024-04-05T07:07:16.202Z,11.56
2024-04-05T07:08:16.479Z,11.56
2024-04-05T07:09:16.931Z,11.56
2024-04-05T07:10:39.221Z,11.56
2024-04-05T07:11:15.912Z,11.56
2024-04-05T07:12:16.214Z,11.56
2024-04-05T07:13:16.439Z,11.56
2024-04-05T07:14:16.673Z,11.56
2024-04-05T07:15:23.319Z,11.56
2024-04-05T07:16:16.556Z,11.56
2024-04-05T07:17:16.853Z,11.63
2024-04-05T07:18:16.398Z,11.56
2024-04-05T07:19:19.429Z,11.56
2024-04-05T07:20:17.166Z,11.63
2024-04-05T07:21:16.437Z,11.63
2024-04-05T07:22:16.645Z,11.63
2024-04-05T07:23:15.966Z,11.56
2024-04-05T07:24:16.381Z,11.63
2024-04-05T07:25:17.085Z,11.63
2024-04-05T07:26:16.104Z,11.63
2024-04-05T07:27:16.310Z,11.63
2024-04-05T07:28:17.659Z,11.63
2024-04-05T07:29:16.918Z,11.63
2024-04-05T07:30:16.445Z,11.63
2024-04-05T07:31:17.735Z,11.63
2024-04-05T07:32:16.327Z,11.63
2024-04-05T07:33:16.384Z,11.63
2024-04-05T07:34:16.867Z,11.63
2024-04-05T07:35:16.544Z,11.63
2024-04-05T07:36:17.026Z,11.63
2024-04-05T07:37:16.419Z,11.63
2024-04-05T07:38:16.645Z,11.63
2024-04-05T07:39:15.942Z,11.63
2024-04-05T07:40:16.823Z,11.63
2024-04-05T07:41:16.043Z,11.63
2024-04-05T07:42:16.481Z,11.63
2024-04-05T07:43:16.617Z,11.63
2024-04-05T07:44:16.800Z,11.63
2024-04-05T07:45:16.527Z,11.63
2024-04-05T07:46:16.732Z,11.63
2024-04-05T07:47:15.905Z,11.63
2024-04-05T07:48:16.378Z,11.63
2024-04-05T07:49:17.237Z,11.63
2024-04-05T07:50:17.846Z,11.69
2024-04-05T07:51:17.156Z,11.69
2024-04-05T07:52:16.227Z,11.69
2024-04-05T07:53:21.660Z,11.69
2024-04-05T07:54:19.767Z,11.69
2024-04-05T07:55:16.989Z,11.69
2024-04-05T07:56:16.257Z,11.69
2024-04-05T07:57:16.383Z,11.69
2024-04-05T07:58:16.721Z,11.69
2024-04-05T07:59:16.099Z,11.69
2024-04-05T08:00:23.944Z,11.69
2024-04-05T08:01:16.056Z,11.69
2024-04-05T08:02:16.731Z,11.69
2024-04-05T08:03:15.917Z,11.69
2024-04-05T08:04:16.320Z,11.69
2024-04-05T08:05:17.071Z,11.69
2024-04-05T08:06:16.378Z,11.69
2024-04-05T08:07:16.714Z,11.69
2024-04-05T08:08:19.960Z,11.69
2024-04-05T08:09:53.391Z,11.69
2024-04-05T08:10:30.987Z,11.75
2024-04-05T08:11:16.155Z,11.75
2024-04-05T08:12:19.353Z,11.75
2024-04-05T08:13:42.564Z,11.75
2024-04-05T08:14:25.757Z,11.75
2024-04-05T08:15:20.868Z,11.75
2024-04-05T08:16:16.948Z,11.81
2024-04-05T08:17:19.042Z,11.81
2024-04-05T08:18:25.267Z,11.81
2024-04-05T08:19:40.459Z,11.81
2024-04-05T08:20:36.257Z,11.88
2024-04-05T08:21:23.376Z,11.88
2024-04-05T08:22:16.686Z,11.88
2024-04-05T08:23:18.133Z,11.94
2024-04-05T08:24:19.294Z,11.94
2024-04-05T08:25:17.235Z,11.94
2024-04-05T08:26:17.584Z,11.94
2024-04-05T08:27:17.883Z,12
2024-04-05T08:28:17.218Z,12
2024-04-05T08:29:24.795Z,12
2024-04-05T08:30:16.546Z,12
2024-04-05T08:31:16.743Z,12.06
2024-04-05T08:32:20.030Z,12.06
2024-04-05T08:33:16.201Z,12.06
2024-04-05T08:34:16.468Z,12.13
2024-04-05T08:35:22.118Z,12.13
2024-04-05T08:36:16.509Z,12.13
2024-04-05T08:37:23.929Z,12.13
2024-04-05T08:38:16.952Z,12.19
2024-04-05T08:39:16.401Z,12.19
2024-04-05T08:40:17.008Z,12.25
2024-04-05T08:41:16.435Z,12.25
2024-04-05T08:42:16.688Z,12.25
2024-04-05T08:43:16.856Z,12.31
2024-04-05T08:44:16.206Z,12.31
2024-04-05T08:45:16.851Z,12.31
2024-04-05T08:46:16.235Z,12.37
2024-04-05T08:47:16.575Z,12.37
2024-04-05T08:48:17.132Z,12.37
2024-04-05T08:49:20.494Z,12.44
2024-04-05T08:50:17.141Z,12.44
2024-04-05T08:51:19.457Z,12.5
2024-04-05T08:52:16.650Z,12.5
2024-04-05T08:53:18.695Z,12.5
2024-04-05T08:54:16.475Z,12.56
2024-04-05T08:55:16.885Z,12.56
2024-04-05T08:56:19.180Z,12.63
2024-04-05T08:57:16.699Z,12.63
2024-04-05T08:58:16.882Z,12.69
2024-04-05T08:59:15.863Z,12.69
2024-04-05T09:00:16.564Z,12.69
2024-04-05T09:01:16.710Z,12.75
2024-04-05T09:02:16.323Z,12.75
2024-04-05T09:03:17.661Z,12.81
2024-04-05T09:04:15.922Z,12.81
2024-04-05T09:05:26.562Z,12.81
2024-04-05T09:06:16.716Z,12.88
2024-04-05T09:07:17.106Z,12.88
2024-04-05T09:08:16.259Z,12.88
2024-04-05T09:09:16.704Z,12.94
2024-04-05T09:10:16.364Z,12.94
2024-04-05T09:11:16.535Z,13
2024-04-05T09:12:16.018Z,13
2024-04-05T09:13:16.244Z,13
2024-04-05T09:14:23.607Z,13.06
2024-04-05T09:15:17.422Z,13.06
2024-04-05T09:16:21.610Z,13.13
2024-04-05T09:17:16.897Z,13.13
2024-04-05T09:18:21.204Z,13.19
2024-04-05T09:19:16.310Z,13.19
2024-04-05T09:20:16.943Z,13.25
2024-04-05T09:21:17.091Z,13.25
2024-04-05T09:22:17.334Z,13.25
2024-04-05T09:23:16.656Z,13.31
2024-04-05T09:24:15.744Z,13.31
2024-04-05T09:25:16.566Z,13.31
2024-04-05T09:26:15.886Z,13.38
2024-04-05T09:27:15.950Z,13.38
2024-04-05T09:28:16.174Z,13.38
2024-04-05T09:29:16.599Z,13.44
2024-04-05T09:30:17.346Z,13.44
2024-04-05T09:31:17.728Z,13.44
2024-04-05T09:32:16.010Z,13.5
2024-04-05T09:33:16.286Z,13.5
2024-04-05T09:34:16.650Z,13.56
2024-04-05T09:35:20.382Z,13.56
2024-04-05T09:36:16.672Z,13.56
2024-04-05T09:37:15.844Z,13.62
2024-04-05T09:38:16.242Z,13.69
2024-04-05T09:39:16.762Z,13.69
2024-04-05T09:40:16.367Z,13.75
2024-04-05T09:41:16.622Z,13.75
2024-04-05T09:42:16.945Z,13.75
2024-04-05T09:43:16.033Z,13.81
2024-04-05T09:44:26.748Z,13.81
2024-04-05T09:45:16.799Z,13.88
2024-04-05T09:46:16.119Z,13.88
2024-04-05T09:47:16.406Z,13.94
2024-04-05T09:48:16.528Z,13.94
2024-04-05T09:49:16.711Z,13.94
2024-04-05T09:50:16.482Z,14
2024-04-05T09:51:17.711Z,14
2024-04-05T09:52:15.880Z,14.06
2024-04-05T09:53:17.181Z,14.06
2024-04-05T09:54:16.404Z,14.13
2024-04-05T09:55:21.208Z,14.13
2024-04-05T09:56:16.520Z,14.19
2024-04-05T09:57:16.841Z,14.19
2024-04-05T09:58:16.031Z,14.19
2024-04-05T09:59:16.297Z,14.25
2024-04-05T10:00:16.874Z,14.25
2024-04-05T10:01:16.124Z,14.31
2024-04-05T10:02:16.673Z,14.31
2024-04-05T10:03:16.093Z,14.31
2024-04-05T10:04:16.324Z,14.38
2024-04-05T10:05:17.142Z,14.38
2024-04-05T10:06:16.591Z,14.38
2024-04-05T10:07:16.718Z,14.44
2024-04-05T10:08:15.943Z,14.44
2024-04-05T10:09:16.438Z,14.5
2024-04-05T10:10:17.289Z,14.5
2024-04-05T10:11:16.806Z,14.5
2024-04-05T10:12:16.186Z,14.56
2024-04-05T10:13:16.210Z,14.56
2024-04-05T10:14:16.501Z,14.56
2024-04-05T10:15:17.217Z,14.56
2024-04-05T10:16:16.579Z,14.56
2024-04-05T10:17:16.904Z,14.56
2024-04-05T10:18:15.966Z,14.56
2024-04-05T10:19:16.473Z,14.63
2024-04-05T10:20:17.404Z,14.69
2024-04-05T10:21:16.442Z,14.69
2024-04-05T10:22:16.819Z,14.75
2024-04-05T10:23:17.559Z,14.75
2024-04-05T10:24:16.339Z,14.75
2024-04-05T10:25:16.970Z,14.75
2024-04-05T10:26:16.297Z,14.75
2024-04-05T10:27:16.660Z,14.81
2024-04-05T10:28:16.870Z,14.75
2024-04-05T10:29:16.087Z,14.81
2024-04-05T10:30:16.708Z,14.81
2024-04-05T10:31:15.986Z,14.81
2024-04-05T10:32:16.333Z,14.87
2024-04-05T10:33:16.646Z,14.87
2024-04-05T10:34:17.946Z,14.87
2024-04-05T10:35:16.578Z,14.87
2024-04-05T10:36:16.851Z,14.87
2024-04-05T10:37:16.143Z,14.94
2024-04-05T10:38:38.771Z,14.94
2024-04-05T10:39:16.837Z,14.94
2024-04-05T10:40:16.384Z,14.94
2024-04-05T10:41:16.717Z,14.94
2024-04-05T10:42:20.006Z,14.94
2024-04-05T10:43:16.303Z,14.94
2024-04-05T10:44:16.518Z,15
2024-04-05T10:45:17.047Z,14.94
2024-04-05T10:46:16.299Z,14.94
2024-04-05T10:47:16.573Z,15
2024-04-05T10:48:15.760Z,14.94
2024-04-05T10:49:16.109Z,14.94
2024-04-05T10:50:17.028Z,14.94
2024-04-05T10:51:16.180Z,14.94
2024-04-05T10:52:16.556Z,14.94
2024-04-05T10:53:16.827Z,14.94
2024-04-05T10:54:15.936Z,14.94
2024-04-05T10:55:16.646Z,14.94
2024-04-05T10:56:16.709Z,14.94
2024-04-05T10:57:16.983Z,14.94
2024-04-05T10:58:16.064Z,14.94
2024-04-05T10:59:16.548Z,14.94
2024-04-05T11:00:17.222Z,14.94
2024-04-05T11:01:17.535Z,15
2024-04-05T11:02:16.884Z,15
2024-04-05T11:03:16.138Z,15
2024-04-05T11:04:16.933Z,15
2024-04-05T11:05:17.321Z,15
2024-04-05T11:06:16.416Z,15
2024-04-05T11:07:16.628Z,15
2024-04-05T11:08:15.869Z,15
2024-04-05T11:09:16.301Z,15.06
2024-04-05T11:10:32.500Z,15.06
2024-04-05T11:11:16.259Z,15.06
2024-04-05T11:12:16.588Z,15.06
2024-04-05T11:13:16.767Z,15.06
2024-04-05T11:14:16.279Z,15.06
2024-04-05T11:15:16.967Z,15.06
2024-04-05T11:16:16.333Z,15.06
2024-04-05T11:17:16.613Z,15.06
2024-04-05T11:18:16.717Z,15.06
2024-04-05T11:19:15.805Z,15.06
2024-04-05T11:20:16.488Z,15.06
2024-04-05T11:21:22.755Z,15.06
2024-04-05T11:22:16.027Z,15.06
2024-04-05T11:23:16.279Z,15.06
2024-04-05T11:24:16.449Z,15.06
2024-04-05T11:25:17.030Z,15.06
2024-04-05T11:26:16.287Z,15.06
2024-04-05T11:27:16.415Z,15.13
2024-04-05T11:28:16.531Z,15.06
2024-04-05T11:29:17.023Z,15.06
2024-04-05T11:30:16.505Z,15.06
2024-04-05T11:31:16.926Z,15.06
2024-04-05T11:32:15.995Z,15.13
2024-04-05T11:33:16.560Z,15.13
2024-04-05T11:34:16.946Z,15.13
2024-04-05T11:35:16.490Z,15.13
2024-04-05T11:36:16.849Z,15.13
2024-04-05T11:37:16.014Z,15.19
2024-04-05T11:38:16.459Z,15.19
2024-04-05T11:39:21.819Z,15.19
2024-04-05T11:40:36.375Z,15.19
2024-04-05T11:41:16.662Z,15.19
2024-04-05T11:42:16.116Z,15.25
2024-04-05T11:43:16.271Z,15.25
2024-04-05T11:44:16.564Z,15.25
2024-04-05T11:45:17.100Z,15.25
2024-04-05T11:46:16.431Z,15.31
2024-04-05T11:47:16.679Z,15.31
2024-04-05T11:48:18.339Z,15.31
2024-04-05T11:49:16.350Z,15.31
2024-04-05T11:50:17.176Z,15.38
2024-04-05T11:51:16.411Z,15.38
2024-04-05T11:52:16.642Z,15.38
2024-04-05T11:53:15.953Z,15.38
2024-04-05T11:54:16.202Z,15.44
2024-04-05T11:55:16.886Z,15.44
2024-04-05T11:56:16.355Z,15.44
2024-04-05T11:57:16.630Z,15.44
2024-04-05T11:58:16.878Z,15.5
2024-04-05T11:59:16.202Z,15.5
2024-04-05T12:00:16.949Z,15.5
2024-04-05T12:01:16.300Z,15.5
2024-04-05T12:02:16.844Z,15.5
2024-04-05T12:03:16.356Z,15.5
2024-04-05T12:04:16.565Z,15.5
2024-04-05T12:05:23.127Z,15.5
2024-04-05T12:06:16.579Z,15.5
2024-04-05T12:07:15.835Z,15.5
2024-04-05T12:08:16.135Z,15.5
2024-04-05T12:09:16.501Z,15.5
2024-04-05T12:10:17.174Z,15.5
2024-04-05T12:11:16.505Z,15.5
2024-04-05T12:12:16.783Z,15.5
2024-04-05T12:13:16.593Z,15.56
2024-04-05T12:14:18.858Z,15.56
2024-04-05T12:15:17.941Z,15.56
2024-04-05T12:16:17.322Z,15.56
2024-04-05T12:17:16.930Z,15.63
2024-04-05T12:18:16.132Z,15.63
2024-04-05T12:19:16.393Z,15.63
2024-04-05T12:20:17.035Z,15.63
2024-04-05T12:21:16.431Z,15.69
2024-04-05T12:22:16.629Z,15.69
2024-04-05T12:23:16.954Z,15.69
2024-04-05T12:24:16.189Z,15.69
2024-04-05T12:25:16.925Z,15.69
2024-04-05T12:26:19.943Z,15.75
2024-04-05T12:27:17.732Z,15.75
2024-04-05T12:28:16.636Z,15.75
2024-04-05T12:29:16.864Z,15.75
2024-04-05T12:30:16.748Z,15.81
2024-04-05T12:31:16.254Z,15.81
2024-04-05T12:32:16.805Z,15.81
2024-04-05T12:33:16.949Z,15.81
2024-04-05T12:34:17.002Z,15.88
2024-04-05T12:35:16.602Z,15.88
2024-04-05T12:36:16.949Z,15.88
2024-04-05T12:37:16.086Z,15.94
2024-04-05T12:38:42.607Z,15.94
2024-04-05T12:39:16.563Z,15.94
2024-04-05T12:40:17.135Z,15.94
2024-04-05T12:41:16.282Z,16
2024-04-05T12:42:16.669Z,16
2024-04-05T12:43:16.973Z,16.06
2024-04-05T12:44:32.294Z,16.06
2024-04-05T12:45:21.926Z,16.06
2024-04-05T12:46:35.091Z,16.12
2024-04-05T12:47:16.412Z,16.12
2024-04-05T12:48:16.655Z,16.12
2024-04-05T12:49:16.950Z,16.19
2024-04-05T12:50:21.115Z,16.19
2024-04-05T12:51:16.325Z,16.19
2024-04-05T12:52:16.466Z,16.19
2024-04-05T12:53:16.948Z,16.19
2024-04-05T12:54:16.166Z,16.19
2024-04-05T12:55:16.699Z,16.25
2024-04-05T12:56:15.942Z,16.25
2024-04-05T12:57:16.279Z,16.25